sensor_id;sensor_type;location;lat;lon;timestamp;pressure;altitude;pressure_sealevel;temperature;humidity
40872;BME280;26591;43.264;26.940;2023-02-02T00:01:21;98795.63;;;4.58;60.44
40872;BME280;26591;43.264;26.940;2023-02-02T00:03:47;98790.41;;;4.58;60.44
40872;BME280;26591;43.264;26.940;2023-02-02T00:06:15;98801.53;;;4.40;61.20
40872;BME280;26591;43.264;26.940;2023-02-02T00:08:41;98787.19;;;4.45;60.88
40872;BME280;26591;43.264;26.940;2023-02-02T00:11:06;98787.13;;;4.76;60.13
40872;BME280;26591;43.264;26.940;2023-02-02T00:13:32;98796.81;;;4.85;59.50
40872;BME280;26591;43.264;26.940;2023-02-02T00:16:20;98799.53;;;4.73;59.76
40872;BME280;26591;43.264;26.940;2023-02-02T00:18:53;98791.25;;;4.78;60.43
40872;BME280;26591;43.264;26.940;2023-02-02T00:21:20;98792.09;;;4.69;60.76
40872;BME280;26591;43.264;26.940;2023-02-02T00:23:45;98783.72;;;4.85;60.33
40872;BME280;26591;43.264;26.940;2023-02-02T00:26:10;98786.72;;;4.80;59.86
40872;BME280;26591;43.264;26.940;2023-02-02T00:28:36;98782.44;;;4.69;60.07
40872;BME280;26591;43.264;26.940;2023-02-02T00:31:01;98779.66;;;4.61;59.93
40872;BME280;26591;43.264;26.940;2023-02-02T00:33:27;98778.28;;;4.67;60.20
40872;BME280;26591;43.264;26.940;2023-02-02T00:35:52;98765.84;;;4.59;60.34
40872;BME280;26591;43.264;26.940;2023-02-02T00:38:18;98762.28;;;4.70;59.76
40872;BME280;26591;43.264;26.940;2023-02-02T00:40:44;98764.91;;;4.70;60.42
40872;BME280;26591;43.264;26.940;2023-02-02T00:43:09;98757.88;;;4.61;60.40
40872;BME280;26591;43.264;26.940;2023-02-02T00:45:37;98753.16;;;4.54;60.48
40872;BME280;26591;43.264;26.940;2023-02-02T00:48:03;98755.09;;;4.62;60.19
40872;BME280;26591;43.264;26.940;2023-02-02T00:50:29;98750.81;;;4.61;60.38
40872;BME280;26591;43.264;26.940;2023-02-02T00:52:54;98752.16;;;4.46;60.38
40872;BME280;26591;43.264;26.940;2023-02-02T00:55:20;98747.34;;;4.51;60.81
40872;BME280;26591;43.264;26.940;2023-02-02T00:57:46;98745.41;;;4.43;60.80
40872;BME280;26591;43.264;26.940;2023-02-02T01:00:15;98744.88;;;4.59;60.34
40872;BME280;26591;43.264;26.940;2023-02-02T01:02:41;98739.81;;;4.67;60.75
40872;BME280;26591;43.264;26.940;2023-02-02T01:05:08;98744.59;;;4.52;61.03
40872;BME280;26591;43.264;26.940;2023-02-02T01:07:33;98738.66;;;4.40;61.24
40872;BME280;26591;43.264;26.940;2023-02-02T01:09:59;98742.53;;;4.46;60.63
40872;BME280;26591;43.264;26.940;2023-02-02T01:12:24;98733.88;;;4.24;61.56
40872;BME280;26591;43.264;26.940;2023-02-02T01:14:50;98738.22;;;4.35;61.31
40872;BME280;26591;43.264;26.940;2023-02-02T01:17:15;98732.03;;;4.56;60.71
40872;BME280;26591;43.264;26.940;2023-02-02T01:19:41;98726.91;;;4.45;61.21
40872;BME280;26591;43.264;26.940;2023-02-02T01:22:07;98728.06;;;4.11;61.18
40872;BME280;26591;43.264;26.940;2023-02-02T01:24:33;98723.47;;;4.03;61.33
40872;BME280;26591;43.264;26.940;2023-02-02T01:26:58;98735.81;;;4.22;61.94
40872;BME280;26591;43.264;26.940;2023-02-02T01:29:26;98728.38;;;3.87;62.65
40872;BME280;26591;43.264;26.940;2023-02-02T01:31:52;98722.91;;;4.00;62.35
40872;BME280;26591;43.264;26.940;2023-02-02T01:34:18;98726.22;;;4.33;61.50
40872;BME280;26591;43.264;26.940;2023-02-02T01:36:43;98726.53;;;4.08;61.96
40872;BME280;26591;43.264;26.940;2023-02-02T01:39:09;98723.97;;;4.18;61.88
40872;BME280;26591;43.264;26.940;2023-02-02T01:41:34;98726.53;;;4.08;62.29
40872;BME280;26591;43.264;26.940;2023-02-02T01:44:03;98724.03;;;3.97;62.50
40872;BME280;26591;43.264;26.940;2023-02-02T01:46:31;98731.53;;;3.90;62.42
40872;BME280;26591;43.264;26.940;2023-02-02T01:49:12;98728.94;;;3.90;63.28
40872;BME280;26591;43.264;26.940;2023-02-02T01:51:47;98719.56;;;3.88;62.69
40872;BME280;26591;43.264;26.940;2023-02-02T01:54:18;98728.13;;;3.90;62.62
40872;BME280;26591;43.264;26.940;2023-02-02T01:56:50;98723.97;;;3.87;63.04
40872;BME280;26591;43.264;26.940;2023-02-02T01:59:18;98735.75;;;3.72;63.42
40872;BME280;26591;43.264;26.940;2023-02-02T02:01:45;98741.53;;;3.75;63.62
40872;BME280;26591;43.264;26.940;2023-02-02T02:04:12;98749.06;;;3.90;63.23
40872;BME280;26591;43.264;26.940;2023-02-02T02:06:38;98743.78;;;3.80;63.15
40872;BME280;26591;43.264;26.940;2023-02-02T02:09:05;98735.66;;;3.83;63.21
40872;BME280;26591;43.264;26.940;2023-02-02T02:11:33;98747.50;;;3.77;62.88
40872;BME280;26591;43.264;26.940;2023-02-02T02:14:00;98739.25;;;3.82;63.05
40872;BME280;26591;43.264;26.940;2023-02-02T02:40:20;98743.28;;;3.23;66.42
40872;BME280;26591;43.264;26.940;2023-02-02T02:43:01;98754.81;;;3.41;65.67
40872;BME280;26591;43.264;26.940;2023-02-02T02:45:30;98752.84;;;3.33;66.40
40872;BME280;26591;43.264;26.940;2023-02-02T02:47:56;98745.28;;;3.30;66.44
40872;BME280;26591;43.264;26.940;2023-02-02T02:50:25;98741.41;;;3.13;67.40
40872;BME280;26591;43.264;26.940;2023-02-02T02:52:59;98730.13;;;3.13;67.98
40872;BME280;26591;43.264;26.940;2023-02-02T02:55:34;98740.69;;;3.23;68.25
40872;BME280;26591;43.264;26.940;2023-02-02T03:01:20;98741.63;;;3.22;68.77
40872;BME280;26591;43.264;26.940;2023-02-02T03:04:19;98739.22;;;2.97;69.73
40872;BME280;26591;43.264;26.940;2023-02-02T03:06:51;98687.91;;;2.96;69.53
40872;BME280;26591;43.264;26.940;2023-02-02T03:09:27;98733.63;;;3.02;70.06
40872;BME280;26591;43.264;26.940;2023-02-02T03:11:57;98717.69;;;3.05;69.95
40872;BME280;26591;43.264;26.940;2023-02-02T03:14:22;98725.28;;;3.08;69.43
40872;BME280;26591;43.264;26.940;2023-02-02T03:16:50;98697.91;;;2.91;69.83
40872;BME280;26591;43.264;26.940;2023-02-02T03:19:17;98714.63;;;3.00;69.64
40872;BME280;26591;43.264;26.940;2023-02-02T03:21:42;98714.88;;;3.18;69.15
40872;BME280;26591;43.264;26.940;2023-02-02T03:24:08;98710.09;;;3.23;69.28
40872;BME280;26591;43.264;26.940;2023-02-02T03:26:34;98715.97;;;3.15;69.05
40872;BME280;26591;43.264;26.940;2023-02-02T03:29:00;98712.41;;;3.16;68.57
40872;BME280;26591;43.264;26.940;2023-02-02T03:31:27;98709.22;;;3.13;68.64
40872;BME280;26591;43.264;26.940;2023-02-02T03:33:54;98704.88;;;3.23;68.60
40872;BME280;26591;43.264;26.940;2023-02-02T03:36:20;98703.03;;;3.14;68.75
40872;BME280;26591;43.264;26.940;2023-02-02T03:38:45;98694.28;;;3.03;68.71
40872;BME280;26591;43.264;26.940;2023-02-02T03:41:11;98705.75;;;3.12;68.80
40872;BME280;26591;43.264;26.940;2023-02-02T03:43:36;98707.19;;;3.16;68.45
40872;BME280;26591;43.264;26.940;2023-02-02T03:46:04;98692.94;;;3.09;68.53
40872;BME280;26591;43.264;26.940;2023-02-02T03:48:33;98696.53;;;3.08;68.60
40872;BME280;26591;43.264;26.940;2023-02-02T03:50:59;98698.94;;;3.00;68.66
40872;BME280;26591;43.264;26.940;2023-02-02T03:53:24;98694.03;;;3.07;68.51
40872;BME280;26591;43.264;26.940;2023-02-02T03:55:50;98698.94;;;3.00;68.85
40872;BME280;26591;43.264;26.940;2023-02-02T03:58:15;98703.50;;;2.86;69.48
40872;BME280;26591;43.264;26.940;2023-02-02T04:00:42;98708.09;;;2.94;69.24
40872;BME280;26591;43.264;26.940;2023-02-02T04:03:07;98705.16;;;2.87;69.69
40872;BME280;26591;43.264;26.940;2023-02-02T04:05:33;98688.06;;;2.83;69.62
40872;BME280;26591;43.264;26.940;2023-02-02T04:07:58;98686.63;;;2.90;69.32
40872;BME280;26591;43.264;26.940;2023-02-02T04:10:24;98685.00;;;2.78;69.54
40872;BME280;26591;43.264;26.940;2023-02-02T04:12:49;98658.59;;;2.81;69.99
40872;BME280;26591;43.264;26.940;2023-02-02T04:15:15;98681.69;;;2.76;69.93
40872;BME280;26591;43.264;26.940;2023-02-02T04:17:40;98683.59;;;2.74;70.14
40872;BME280;26591;43.264;26.940;2023-02-02T04:20:06;98694.06;;;2.74;70.30
40872;BME280;26591;43.264;26.940;2023-02-02T04:22:33;98689.44;;;2.66;70.12
40872;BME280;26591;43.264;26.940;2023-02-02T04:24:58;98682.75;;;2.73;70.23
40872;BME280;26591;43.264;26.940;2023-02-02T04:27:24;98697.31;;;2.87;70.11
40872;BME280;26591;43.264;26.940;2023-02-02T04:29:49;98684.69;;;2.71;70.39
40872;BME280;26591;43.264;26.940;2023-02-02T04:32:16;98692.81;;;2.57;70.51
40872;BME280;26591;43.264;26.940;2023-02-02T04:34:42;98688.88;;;2.51;71.28
40872;BME280;26591;43.264;26.940;2023-02-02T04:37:08;98682.59;;;2.54;70.96
40872;BME280;26591;43.264;26.940;2023-02-02T04:39:33;98691.00;;;2.57;71.01
40872;BME280;26591;43.264;26.940;2023-02-02T04:41:59;98684.59;;;2.62;71.38
40872;BME280;26591;43.264;26.940;2023-02-02T04:44:25;98697.19;;;2.56;71.11
40872;BME280;26591;43.264;26.940;2023-02-02T04:46:50;98689.81;;;2.62;71.55
40872;BME280;26591;43.264;26.940;2023-02-02T04:49:16;98687.69;;;2.55;71.79
40872;BME280;26591;43.264;26.940;2023-02-02T04:51:41;98701.66;;;2.66;71.42
40872;BME280;26591;43.264;26.940;2023-02-02T04:54:07;98703.94;;;2.70;71.07
40872;BME280;26591;43.264;26.940;2023-02-02T04:56:33;98705.25;;;2.65;70.99
40872;BME280;26591;43.264;26.940;2023-02-02T04:58:58;98690.69;;;2.51;71.92
40872;BME280;26591;43.264;26.940;2023-02-02T05:01:24;98711.53;;;2.62;71.26
40872;BME280;26591;43.264;26.940;2023-02-02T05:03:50;98714.53;;;2.57;71.48
40872;BME280;26591;43.264;26.940;2023-02-02T05:06:16;98720.69;;;2.56;71.39
40872;BME280;26591;43.264;26.940;2023-02-02T05:08:42;98715.97;;;2.50;72.16
40872;BME280;26591;43.264;26.940;2023-02-02T05:11:10;98715.28;;;2.48;72.02
40872;BME280;26591;43.264;26.940;2023-02-02T05:13:35;98715.50;;;2.45;72.18
40872;BME280;26591;43.264;26.940;2023-02-02T05:16:01;98726.88;;;2.55;71.63
40872;BME280;26591;43.264;26.940;2023-02-02T05:18:27;98718.81;;;2.58;71.69
40872;BME280;26591;43.264;26.940;2023-02-02T05:20:53;98708.34;;;2.58;72.04
40872;BME280;26591;43.264;26.940;2023-02-02T05:23:19;98719.34;;;2.73;71.23
40872;BME280;26591;43.264;26.940;2023-02-02T05:25:50;98726.88;;;2.55;71.83
40872;BME280;26591;43.264;26.940;2023-02-02T05:28:17;98723.66;;;2.63;72.05
40872;BME280;26591;43.264;26.940;2023-02-02T05:30:42;98726.38;;;2.73;71.39
40872;BME280;26591;43.264;26.940;2023-02-02T05:33:08;98741.72;;;2.66;71.96
40872;BME280;26591;43.264;26.940;2023-02-02T05:35:33;98734.03;;;3.61;75.43
40872;BME280;26591;43.264;26.940;2023-02-02T05:37:58;98749.72;;;4.54;74.94
40872;BME280;26591;43.264;26.940;2023-02-02T05:40:24;98733.91;;;4.85;66.78
40872;BME280;26591;43.264;26.940;2023-02-02T05:42:49;98745.31;;;4.64;65.93
40872;BME280;26591;43.264;26.940;2023-02-02T05:45:15;98746.78;;;4.57;66.25
40872;BME280;26591;43.264;26.940;2023-02-02T05:47:40;98730.53;;;4.63;65.06
40872;BME280;26591;43.264;26.940;2023-02-02T05:50:06;98733.75;;;4.96;64.43
40872;BME280;26591;43.264;26.940;2023-02-02T05:52:33;98726.81;;;5.25;63.62
40872;BME280;26591;43.264;26.940;2023-02-02T05:54:59;98741.59;;;5.35;63.30
40872;BME280;26591;43.264;26.940;2023-02-02T05:57:25;98739.09;;;5.54;62.73
40872;BME280;26591;43.264;26.940;2023-02-02T05:59:52;98730.47;;;5.71;61.76
40872;BME280;26591;43.264;26.940;2023-02-02T06:02:18;98724.94;;;5.84;61.96
40872;BME280;26591;43.264;26.940;2023-02-02T06:04:43;98729.53;;;5.62;61.25
40872;BME280;26591;43.264;26.940;2023-02-02T06:07:09;98746.47;;;5.88;61.11
40872;BME280;26591;43.264;26.940;2023-02-02T06:09:35;98736.06;;;5.96;61.34
40872;BME280;26591;43.264;26.940;2023-02-02T06:12:00;98726.56;;;5.38;61.87
40872;BME280;26591;43.264;26.940;2023-02-02T06:14:26;98733.03;;;5.43;62.31
40872;BME280;26591;43.264;26.940;2023-02-02T06:16:51;98727.50;;;5.56;61.34
40872;BME280;26591;43.264;26.940;2023-02-02T06:19:17;98731.25;;;5.44;62.04
40872;BME280;26591;43.264;26.940;2023-02-02T06:21:43;98730.84;;;5.09;62.62
40872;BME280;26591;43.264;26.940;2023-02-02T06:24:08;98733.91;;;4.85;63.15
40872;BME280;26591;43.264;26.940;2023-02-02T06:26:34;98732.72;;;4.58;64.56
40872;BME280;26591;43.264;26.940;2023-02-02T06:28:59;98735.34;;;4.48;64.60
40872;BME280;26591;43.264;26.940;2023-02-02T06:31:25;98742.22;;;4.39;65.20
40872;BME280;26591;43.264;26.940;2023-02-02T06:33:55;98751.38;;;4.55;65.17
40872;BME280;26591;43.264;26.940;2023-02-02T06:36:21;98736.47;;;4.65;64.89
40872;BME280;26591;43.264;26.940;2023-02-02T06:38:55;98740.50;;;4.69;64.40
40872;BME280;26591;43.264;26.940;2023-02-02T06:41:21;98727.50;;;4.68;64.14
40872;BME280;26591;43.264;26.940;2023-02-02T06:43:48;98734.63;;;4.36;64.90
40872;BME280;26591;43.264;26.940;2023-02-02T06:46:14;98747.94;;;4.23;65.66
40872;BME280;26591;43.264;26.940;2023-02-02T06:48:39;98733.19;;;4.22;65.31
40872;BME280;26591;43.264;26.940;2023-02-02T06:51:05;98736.34;;;4.16;65.93
40872;BME280;26591;43.264;26.940;2023-02-02T06:53:32;98749.22;;;4.29;65.68
40872;BME280;26591;43.264;26.940;2023-02-02T06:55:59;98752.56;;;4.41;65.51
40872;BME280;26591;43.264;26.940;2023-02-02T06:58:26;98757.28;;;4.57;64.92
40872;BME280;26591;43.264;26.940;2023-02-02T07:00:52;98755.84;;;5.13;63.63
40872;BME280;26591;43.264;26.940;2023-02-02T07:03:20;98750.81;;;5.59;61.93
40872;BME280;26591;43.264;26.940;2023-02-02T07:05:47;98753.44;;;5.59;61.91
40872;BME280;26591;43.264;26.940;2023-02-02T07:08:13;98759.50;;;5.70;61.93
40872;BME280;26591;43.264;26.940;2023-02-02T07:10:39;98753.31;;;5.51;61.59
40872;BME280;26591;43.264;26.940;2023-02-02T07:13:05;98756.25;;;5.28;62.05
40872;BME280;26591;43.264;26.940;2023-02-02T07:15:32;98759.69;;;5.29;62.64
40872;BME280;26591;43.264;26.940;2023-02-02T07:17:58;98738.28;;;5.24;62.24
40872;BME280;26591;43.264;26.940;2023-02-02T07:20:24;98746.84;;;4.86;63.14
40872;BME280;26591;43.264;26.940;2023-02-02T07:22:50;98763.16;;;5.19;63.03
40872;BME280;26591;43.264;26.940;2023-02-02T07:25:15;98754.44;;;5.09;63.37
40872;BME280;26591;43.264;26.940;2023-02-02T07:27:41;98767.72;;;5.08;63.04
40872;BME280;26591;43.264;26.940;2023-02-02T07:30:07;98745.44;;;4.72;63.58
40872;BME280;26591;43.264;26.940;2023-02-02T07:32:32;98768.47;;;4.59;63.90
40872;BME280;26591;43.264;26.940;2023-02-02T07:34:58;98772.72;;;4.40;64.79
40872;BME280;26591;43.264;26.940;2023-02-02T07:37:23;98775.41;;;4.70;64.45
40872;BME280;26591;43.264;26.940;2023-02-02T07:39:49;98771.25;;;4.67;64.36
40872;BME280;26591;43.264;26.940;2023-02-02T07:42:14;98763.03;;;4.41;65.20
40872;BME280;26591;43.264;26.940;2023-02-02T07:44:40;98769.44;;;4.48;65.72
40872;BME280;26591;43.264;26.940;2023-02-02T07:47:05;98768.16;;;4.52;65.21
40872;BME280;26591;43.264;26.940;2023-02-02T07:49:36;98770.41;;;4.67;65.20
40872;BME280;26591;43.264;26.940;2023-02-02T07:52:02;98776.47;;;4.57;65.70
40872;BME280;26591;43.264;26.940;2023-02-02T07:54:28;98782.13;;;4.53;65.26
40872;BME280;26591;43.264;26.940;2023-02-02T07:56:53;98789.31;;;4.61;65.14
40872;BME280;26591;43.264;26.940;2023-02-02T07:59:19;98783.41;;;4.68;65.17
40872;BME280;26591;43.264;26.940;2023-02-02T08:01:44;98785.03;;;4.60;65.01
40872;BME280;26591;43.264;26.940;2023-02-02T08:04:10;98775.81;;;4.65;65.46
40872;BME280;26591;43.264;26.940;2023-02-02T08:06:37;98782.19;;;4.82;64.80
40872;BME280;26591;43.264;26.940;2023-02-02T08:09:05;98787.81;;;4.78;64.76
40872;BME280;26591;43.264;26.940;2023-02-02T08:11:35;98793.03;;;4.68;64.57
40872;BME280;26591;43.264;26.940;2023-02-02T08:14:02;98780.09;;;4.66;64.22
40872;BME280;26591;43.264;26.940;2023-02-02T08:16:30;98798.88;;;4.81;65.13
40872;BME280;26591;43.264;26.940;2023-02-02T08:18:56;98797.34;;;4.79;64.60
40872;BME280;26591;43.264;26.940;2023-02-02T08:21:24;98789.91;;;4.94;64.51
40872;BME280;26591;43.264;26.940;2023-02-02T08:23:51;98791.97;;;4.80;64.29
40872;BME280;26591;43.264;26.940;2023-02-02T08:28:46;98791.63;;;5.44;63.31
40872;BME280;26591;43.264;26.940;2023-02-02T08:31:17;98797.09;;;5.70;62.38
40872;BME280;26591;43.264;26.940;2023-02-02T08:33:51;98799.19;;;5.67;62.56
40872;BME280;26591;43.264;26.940;2023-02-02T08:36:23;98795.59;;;5.58;63.13
40872;BME280;26591;43.264;26.940;2023-02-02T08:38:50;98793.50;;;5.61;62.55
40872;BME280;26591;43.264;26.940;2023-02-02T08:41:18;98789.78;;;5.64;62.58
40872;BME280;26591;43.264;26.940;2023-02-02T08:43:44;98800.22;;;6.13;62.17
40872;BME280;26591;43.264;26.940;2023-02-02T08:46:11;98797.06;;;6.00;61.74
40872;BME280;26591;43.264;26.940;2023-02-02T08:48:46;98801.91;;;6.04;61.03
40872;BME280;26591;43.264;26.940;2023-02-02T08:51:15;98807.19;;;6.32;60.76
40872;BME280;26591;43.264;26.940;2023-02-02T08:53:41;98783.22;;;6.45;60.52
40872;BME280;26591;43.264;26.940;2023-02-02T08:56:15;98790.69;;;6.68;59.86
40872;BME280;26591;43.264;26.940;2023-02-02T08:58:46;98794.19;;;7.05;59.29
40872;BME280;26591;43.264;26.940;2023-02-02T09:03:43;98800.59;;;7.38;57.57
40872;BME280;26591;43.264;26.940;2023-02-02T09:06:12;98797.59;;;7.33;57.58
40872;BME280;26591;43.264;26.940;2023-02-02T09:08:37;98796.00;;;7.40;57.64
40872;BME280;26591;43.264;26.940;2023-02-02T09:11:08;98782.28;;;7.55;56.53
40872;BME280;26591;43.264;26.940;2023-02-02T09:13:35;98782.31;;;7.37;57.68
40872;BME280;26591;43.264;26.940;2023-02-02T09:16:02;98778.09;;;7.44;56.62
40872;BME280;26591;43.264;26.940;2023-02-02T09:18:28;98739.59;;;7.69;56.59
40872;BME280;26591;43.264;26.940;2023-02-02T09:20:57;98746.19;;;7.47;56.73
40872;BME280;26591;43.264;26.940;2023-02-02T09:23:23;98743.56;;;7.47;56.96
40872;BME280;26591;43.264;26.940;2023-02-02T09:25:50;98740.28;;;7.71;56.55
40872;BME280;26591;43.264;26.940;2023-02-02T09:28:15;98743.69;;;7.90;55.77
40872;BME280;26591;43.264;26.940;2023-02-02T09:30:41;98743.50;;;7.65;56.04
40872;BME280;26591;43.264;26.940;2023-02-02T09:33:06;98750.19;;;7.77;56.04
40872;BME280;26591;43.264;26.940;2023-02-02T09:35:32;98730.81;;;7.60;56.70
40872;BME280;26591;43.264;26.940;2023-02-02T09:37:57;98740.53;;;7.60;56.28
40872;BME280;26591;43.264;26.940;2023-02-02T09:40:23;98740.47;;;7.52;55.96
40872;BME280;26591;43.264;26.940;2023-02-02T09:43:07;98736.81;;;7.71;55.23
40872;BME280;26591;43.264;26.940;2023-02-02T09:45:45;98733.94;;;7.82;54.69
40872;BME280;26591;43.264;26.940;2023-02-02T09:48:45;98731.00;;;7.93;54.59
40872;BME280;26591;43.264;26.940;2023-02-02T09:51:19;98744.03;;;7.95;54.76
40872;BME280;26591;43.264;26.940;2023-02-02T09:53:58;98723.00;;;7.51;55.48
40872;BME280;26591;43.264;26.940;2023-02-02T09:56:33;98731.59;;;7.53;55.84
40872;BME280;26591;43.264;26.940;2023-02-02T09:59:00;98735.63;;;7.91;55.08
40872;BME280;26591;43.264;26.940;2023-02-02T10:01:33;98722.81;;;7.97;54.98
40872;BME280;26591;43.264;26.940;2023-02-02T10:04:12;98708.38;;;8.17;54.20
40872;BME280;26591;43.264;26.940;2023-02-02T10:06:41;98727.38;;;8.29;54.67
40872;BME280;26591;43.264;26.940;2023-02-02T10:09:24;98736.97;;;8.38;54.18
40872;BME280;26591;43.264;26.940;2023-02-02T10:17:47;98719.13;;;8.24;54.74
40872;BME280;26591;43.264;26.940;2023-02-02T10:22:45;98733.78;;;8.61;53.87
40872;BME280;26591;43.264;26.940;2023-02-02T10:25:13;98722.06;;;8.55;54.06
40872;BME280;26591;43.264;26.940;2023-02-02T10:27:40;98695.69;;;8.64;54.40
40872;BME280;26591;43.264;26.940;2023-02-02T10:30:28;98705.31;;;8.38;54.32
40872;BME280;26591;43.264;26.940;2023-02-02T10:33:05;98716.66;;;8.22;53.88
40872;BME280;26591;43.264;26.940;2023-02-02T10:36:13;98709.75;;;7.95;54.97
40872;BME280;26591;43.264;26.940;2023-02-02T10:38:58;98724.38;;;8.16;55.41
40872;BME280;26591;43.264;26.940;2023-02-02T10:47:09;98714.03;;;8.74;53.54
40872;BME280;26591;43.264;26.940;2023-02-02T10:49:38;98712.38;;;8.73;53.13
40872;BME280;26591;43.264;26.940;2023-02-02T10:54:43;98707.91;;;8.65;54.07
40872;BME280;26591;43.264;26.940;2023-02-02T10:57:15;98703.16;;;9.01;53.03
40872;BME280;26591;43.264;26.940;2023-02-02T11:00:34;98708.63;;;9.33;51.78
40872;BME280;26591;43.264;26.940;2023-02-02T11:02:33;98709.28;;;9.10;51.86
40872;BME280;26591;43.264;26.940;2023-02-02T11:04:59;98686.97;;;8.72;53.13
40872;BME280;26591;43.264;26.940;2023-02-02T11:07:43;98684.66;;;8.60;52.91
40872;BME280;26591;43.264;26.940;2023-02-02T11:10:09;98694.28;;;9.11;51.97
40872;BME280;26591;43.264;26.940;2023-02-02T11:12:38;98695.56;;;9.48;51.57
40872;BME280;26591;43.264;26.940;2023-02-02T11:15:22;98682.19;;;9.41;51.31
40872;BME280;26591;43.264;26.940;2023-02-02T11:17:49;98679.72;;;9.48;51.19
40872;BME280;26591;43.264;26.940;2023-02-02T11:20:32;98672.66;;;9.88;50.33
40872;BME280;26591;43.264;26.940;2023-02-02T11:23:02;98682.13;;;10.22;49.92
40872;BME280;26591;43.264;26.940;2023-02-02T11:25:38;98668.50;;;9.94;49.58
40872;BME280;26591;43.264;26.940;2023-02-02T11:28:20;98677.03;;;10.13;49.34
40872;BME280;26591;43.264;26.940;2023-02-02T11:30:50;98681.00;;;10.17;49.12
40872;BME280;26591;43.264;26.940;2023-02-02T11:36:06;98666.81;;;9.70;49.36
40872;BME280;26591;43.264;26.940;2023-02-02T11:38:43;98671.94;;;9.55;49.38
40872;BME280;26591;43.264;26.940;2023-02-02T11:41:09;98670.72;;;9.82;49.01
40872;BME280;26591;43.264;26.940;2023-02-02T11:43:47;98670.00;;;9.97;48.51
40872;BME280;26591;43.264;26.940;2023-02-02T11:48:57;98664.50;;;9.67;48.40
40872;BME280;26591;43.264;26.940;2023-02-02T11:51:25;98665.34;;;9.51;48.16
40872;BME280;26591;43.264;26.940;2023-02-02T11:54:05;98671.28;;;9.53;48.23
40872;BME280;26591;43.264;26.940;2023-02-02T11:56:35;98668.81;;;9.51;48.52
40872;BME280;26591;43.264;26.940;2023-02-02T11:59:02;98667.19;;;9.34;48.42
40872;BME280;26591;43.264;26.940;2023-02-02T12:01:36;98680.19;;;9.60;47.54
40872;BME280;26591;43.264;26.940;2023-02-02T12:04:23;98665.47;;;9.66;46.84
40872;BME280;26591;43.264;26.940;2023-02-02T12:06:50;98671.81;;;9.96;47.26
40872;BME280;26591;43.264;26.940;2023-02-02T12:09:20;98677.09;;;9.96;46.63
40872;BME280;26591;43.264;26.940;2023-02-02T12:17:07;98684.03;;;9.97;46.42
40872;BME280;26591;43.264;26.940;2023-02-02T12:22:49;98679.41;;;9.99;45.93
40872;BME280;26591;43.264;26.940;2023-02-02T12:28:50;98667.50;;;10.03;45.25
40872;BME280;26591;43.264;26.940;2023-02-02T12:34:44;98659.03;;;9.68;46.09
40872;BME280;26591;43.264;26.940;2023-02-02T12:37:31;98659.97;;;9.84;46.21
40872;BME280;26591;43.264;26.940;2023-02-02T12:47:41;98659.63;;;10.27;45.78
40872;BME280;26591;43.264;26.940;2023-02-02T12:50:30;98654.22;;;10.12;45.72
40872;BME280;26591;43.264;26.940;2023-02-02T12:53:19;98652.63;;;10.42;45.36
40872;BME280;26591;43.264;26.940;2023-02-02T12:56:16;98647.69;;;10.39;45.36
40872;BME280;26591;43.264;26.940;2023-02-02T13:01:38;98654.56;;;10.08;45.90
40872;BME280;26591;43.264;26.940;2023-02-02T13:15:46;98653.41;;;9.71;44.93
40872;BME280;26591;43.264;26.940;2023-02-02T13:18:25;98646.28;;;9.72;44.72
40872;BME280;26591;43.264;26.940;2023-02-02T13:20:57;98646.53;;;9.45;45.02
40872;BME280;26591;43.264;26.940;2023-02-02T13:28:59;98627.31;;;9.68;45.13
40872;BME280;26591;43.264;26.940;2023-02-02T13:31:54;98635.63;;;9.57;45.19
40872;BME280;26591;43.264;26.940;2023-02-02T13:40:37;98641.31;;;9.77;45.66
40872;BME280;26591;43.264;26.940;2023-02-02T13:49:19;98671.00;;;8.90;47.64
40872;BME280;26591;43.264;26.940;2023-02-02T14:00:19;98753.44;;;7.27;60.50
40872;BME280;26591;43.264;26.940;2023-02-02T14:02:58;98756.09;;;6.91;62.89
40872;BME280;26591;43.264;26.940;2023-02-02T14:07:59;98766.34;;;6.10;68.52
40872;BME280;26591;43.264;26.940;2023-02-02T14:10:35;98777.81;;;5.42;71.15
40872;BME280;26591;43.264;26.940;2023-02-02T14:16:46;98768.81;;;5.15;72.96
40872;BME280;26591;43.264;26.940;2023-02-02T14:24:37;98727.94;;;5.12;74.32
40872;BME280;26591;43.264;26.940;2023-02-02T14:48:37;98728.16;;;4.50;74.12
40872;BME280;26591;43.264;26.940;2023-02-02T14:51:12;98736.69;;;4.42;74.01
40872;BME280;26591;43.264;26.940;2023-02-02T14:53:39;98731.22;;;4.55;71.77
40872;BME280;26591;43.264;26.940;2023-02-02T14:56:15;98734.09;;;4.52;71.78
40872;BME280;26591;43.264;26.940;2023-02-02T14:58:45;98731.75;;;4.49;71.23
40872;BME280;26591;43.264;26.940;2023-02-02T15:06:40;98721.13;;;4.41;70.96
40872;BME280;26591;43.264;26.940;2023-02-02T15:17:10;98723.31;;;4.46;70.68
40872;BME280;26591;43.264;26.940;2023-02-02T15:19:41;98732.72;;;4.38;69.34
40872;BME280;26591;43.264;26.940;2023-02-02T15:22:30;98744.59;;;4.52;69.53
40872;BME280;26591;43.264;26.940;2023-02-02T15:25:03;98754.06;;;4.43;70.20
40872;BME280;26591;43.264;26.940;2023-02-02T15:27:32;98763.88;;;4.51;70.22
40872;BME280;26591;43.264;26.940;2023-02-02T15:30:05;98767.66;;;4.58;70.18
40872;BME280;26591;43.264;26.940;2023-02-02T15:32:34;98769.38;;;4.38;71.37
40872;BME280;26591;43.264;26.940;2023-02-02T15:35:02;98775.06;;;4.12;72.64
40872;BME280;26591;43.264;26.940;2023-02-02T15:37:31;98775.38;;;4.19;72.47
40872;BME280;26591;43.264;26.940;2023-02-02T15:40:11;98773.16;;;4.15;72.92
40872;BME280;26591;43.264;26.940;2023-02-02T15:42:43;98783.09;;;4.21;72.45
40872;BME280;26591;43.264;26.940;2023-02-02T15:45:35;98768.19;;;4.11;73.05
40872;BME280;26591;43.264;26.940;2023-02-02T15:48:26;98788.47;;;4.19;72.90
40872;BME280;26591;43.264;26.940;2023-02-02T15:50:58;98785.72;;;4.21;73.21
40872;BME280;26591;43.264;26.940;2023-02-02T15:55:52;98810.56;;;4.26;72.93
40872;BME280;26591;43.264;26.940;2023-02-02T15:58:22;98793.94;;;4.06;72.96